sensor_id;sensor_type;location;lat;lon;timestamp;pressure;altitude;pressure_sealevel;temperature
19061;BMP280;9663;48.996;8.334;2023-12-22T00:02:08;99092.47;;;16.41
19061;BMP280;9663;48.996;8.334;2023-12-22T00:04:34;99085.44;;;16.46
19061;BMP280;9663;48.996;8.334;2023-12-22T00:07:00;99084.41;;;16.50
19061;BMP280;9663;48.996;8.334;2023-12-22T00:09:25;99096.16;;;16.54
19061;BMP280;9663;48.996;8.334;2023-12-22T00:11:51;99101.94;;;16.57
19061;BMP280;9663;48.996;8.334;2023-12-22T00:14:16;99112.81;;;16.62
19061;BMP280;9663;48.996;8.334;2023-12-22T00:16:42;99126.41;;;16.64
19061;BMP280;9663;48.996;8.334;2023-12-22T00:19:08;99115.16;;;16.67
19061;BMP280;9663;48.996;8.334;2023-12-22T00:21:34;99115.03;;;16.69
19061;BMP280;9663;48.996;8.334;2023-12-22T00:24:00;99128.53;;;16.73
19061;BMP280;9663;48.996;8.334;2023-12-22T00:26:25;99153.13;;;16.75
19061;BMP280;9663;48.996;8.334;2023-12-22T00:28:51;99145.25;;;16.80
19061;BMP280;9663;48.996;8.334;2023-12-22T00:31:17;99151.13;;;16.82
19061;BMP280;9663;48.996;8.334;2023-12-22T00:33:43;99141.56;;;16.85
19061;BMP280;9663;48.996;8.334;2023-12-22T00:36:09;99132.94;;;16.88
19061;BMP280;9663;48.996;8.334;2023-12-22T00:38:35;99131.97;;;16.90
19061;BMP280;9663;48.996;8.334;2023-12-22T00:41:01;99118.25;;;16.91
19061;BMP280;9663;48.996;8.334;2023-12-22T00:43:26;99112.25;;;16.92
19061;BMP280;9663;48.996;8.334;2023-12-22T00:45:52;99113.88;;;16.93
19061;BMP280;9663;48.996;8.334;2023-12-22T00:48:18;99111.31;;;16.93
19061;BMP280;9663;48.996;8.334;2023-12-22T00:50:43;99093.38;;;16.93
19061;BMP280;9663;48.996;8.334;2023-12-22T00:53:09;99108.81;;;16.92
19061;BMP280;9663;48.996;8.334;2023-12-22T00:55:35;99097.81;;;16.90
19061;BMP280;9663;48.996;8.334;2023-12-22T00:58:01;99095.47;;;16.85
19061;BMP280;9663;48.996;8.334;2023-12-22T01:00:26;99099.09;;;16.81
19061;BMP280;9663;48.996;8.334;2023-12-22T01:02:52;99099.38;;;16.75
19061;BMP280;9663;48.996;8.334;2023-12-22T01:05:18;99100.50;;;16.70
19061;BMP280;9663;48.996;8.334;2023-12-22T01:07:43;99110.94;;;16.66
19061;BMP280;9663;48.996;8.334;2023-12-22T01:10:09;99113.72;;;16.61
19061;BMP280;9663;48.996;8.334;2023-12-22T01:12:35;99110.56;;;16.56
19061;BMP280;9663;48.996;8.334;2023-12-22T01:15:00;99129.50;;;16.52
19061;BMP280;9663;48.996;8.334;2023-12-22T01:17:26;99155.22;;;16.49
19061;BMP280;9663;48.996;8.334;2023-12-22T01:19:52;99143.47;;;16.45
19061;BMP280;9663;48.996;8.334;2023-12-22T01:22:17;99162.34;;;16.43
19061;BMP280;9663;48.996;8.334;2023-12-22T01:24:43;99161.63;;;16.39
19061;BMP280;9663;48.996;8.334;2023-12-22T01:27:11;99169.41;;;16.38
19061;BMP280;9663;48.996;8.334;2023-12-22T01:29:37;99182.25;;;16.36
19061;BMP280;9663;48.996;8.334;2023-12-22T01:32:03;99164.34;;;16.36
19061;BMP280;9663;48.996;8.334;2023-12-22T01:34:29;99165.38;;;16.32
19061;BMP280;9663;48.996;8.334;2023-12-22T01:36:55;99193.56;;;16.31
19061;BMP280;9663;48.996;8.334;2023-12-22T01:39:21;99199.72;;;16.27
19061;BMP280;9663;48.996;8.334;2023-12-22T01:41:46;99198.00;;;16.27
19061;BMP280;9663;48.996;8.334;2023-12-22T01:44:12;99180.84;;;16.29
19061;BMP280;9663;48.996;8.334;2023-12-22T01:46:39;99191.03;;;16.31
19061;BMP280;9663;48.996;8.334;2023-12-22T01:49:06;99203.88;;;16.29
19061;BMP280;9663;48.996;8.334;2023-12-22T01:51:34;99215.91;;;16.27
19061;BMP280;9663;48.996;8.334;2023-12-22T01:54:01;99221.94;;;16.26
19061;BMP280;9663;48.996;8.334;2023-12-22T01:56:28;99200.69;;;16.24
19061;BMP280;9663;48.996;8.334;2023-12-22T01:58:59;99200.75;;;16.23
19061;BMP280;9663;48.996;8.334;2023-12-22T02:01:27;99206.03;;;16.20
19061;BMP280;9663;48.996;8.334;2023-12-22T02:03:54;99217.06;;;16.21
19061;BMP280;9663;48.996;8.334;2023-12-22T02:06:20;99210.31;;;16.18
19061;BMP280;9663;48.996;8.334;2023-12-22T02:08:47;99202.53;;;16.21
19061;BMP280;9663;48.996;8.334;2023-12-22T02:11:14;99199.09;;;16.22
19061;BMP280;9663;48.996;8.334;2023-12-22T02:13:42;99200.75;;;16.23
19061;BMP280;9663;48.996;8.334;2023-12-22T02:16:20;99204.22;;;16.22
19061;BMP280;9663;48.996;8.334;2023-12-22T02:18:52;99204.31;;;16.19
19061;BMP280;9663;48.996;8.334;2023-12-22T02:21:20;99196.81;;;16.15
19061;BMP280;9663;48.996;8.334;2023-12-22T02:23:47;99196.13;;;16.11
19061;BMP280;9663;48.996;8.334;2023-12-22T02:26:41;99183.81;;;16.01
19061;BMP280;9663;48.996;8.334;2023-12-22T02:29:12;99182.88;;;16.02
19061;BMP280;9663;48.996;8.334;2023-12-22T02:31:44;99188.09;;;16.00
19061;BMP280;9663;48.996;8.334;2023-12-22T02:34:19;99198.31;;;16.00
19061;BMP280;9663;48.996;8.334;2023-12-22T02:36:47;99196.66;;;15.99
19061;BMP280;9663;48.996;8.334;2023-12-22T02:39:16;99187.25;;;16.00
19061;BMP280;9663;48.996;8.334;2023-12-22T02:41:43;99194.09;;;15.99
19061;BMP280;9663;48.996;8.334;2023-12-22T02:44:09;99183.03;;;15.99
19061;BMP280;9663;48.996;8.334;2023-12-22T02:46:35;99174.59;;;15.97
19061;BMP280;9663;48.996;8.334;2023-12-22T02:49:01;99161.91;;;15.95
19061;BMP280;9663;48.996;8.334;2023-12-22T02:51:27;99170.44;;;15.94
19061;BMP280;9663;48.996;8.334;2023-12-22T02:53:52;99185.84;;;15.93
19061;BMP280;9663;48.996;8.334;2023-12-22T02:56:18;99197.81;;;15.92
19061;BMP280;9663;48.996;8.334;2023-12-22T02:58:43;99212.31;;;15.92
19061;BMP280;9663;48.996;8.334;2023-12-22T03:01:09;99212.31;;;15.92
19061;BMP280;9663;48.996;8.334;2023-12-22T03:03:34;99213.22;;;15.91
19061;BMP280;9663;48.996;8.334;2023-12-22T03:06:00;99210.59;;;15.92
19061;BMP280;9663;48.996;8.334;2023-12-22T03:08:26;99218.16;;;15.95
19061;BMP280;9663;48.996;8.334;2023-12-22T03:10:51;99224.03;;;15.97
19061;BMP280;9663;48.996;8.334;2023-12-22T03:13:17;99224.72;;;16.01
19061;BMP280;9663;48.996;8.334;2023-12-22T03:15:43;99209.31;;;16.02
19061;BMP280;9663;48.996;8.334;2023-12-22T03:18:08;99195.50;;;16.06
19061;BMP280;9663;48.996;8.334;2023-12-22T03:20:34;99201.47;;;16.07
19061;BMP280;9663;48.996;8.334;2023-12-22T03:22:59;99194.47;;;16.10
19061;BMP280;9663;48.996;8.334;2023-12-22T03:25:25;99201.25;;;16.11
19061;BMP280;9663;48.996;8.334;2023-12-22T03:27:51;99195.19;;;16.14
19061;BMP280;9663;48.996;8.334;2023-12-22T03:30:17;99207.97;;;16.14
19061;BMP280;9663;48.996;8.334;2023-12-22T03:32:42;99200.22;;;16.15
19061;BMP280;9663;48.996;8.334;2023-12-22T03:35:08;99213.78;;;16.17
19061;BMP280;9663;48.996;8.334;2023-12-22T03:37:34;99195.94;;;16.16
19061;BMP280;9663;48.996;8.334;2023-12-22T03:40:00;99218.06;;;16.17
19061;BMP280;9663;48.996;8.334;2023-12-22T03:42:25;99222.34;;;16.16
19061;BMP280;9663;48.996;8.334;2023-12-22T03:44:51;99259.88;;;16.16
19061;BMP280;9663;48.996;8.334;2023-12-22T03:47:16;99250.59;;;16.13
19061;BMP280;9663;48.996;8.334;2023-12-22T03:49:42;99245.81;;;16.06
19061;BMP280;9663;48.996;8.334;2023-12-22T03:52:08;99242.88;;;15.95
19061;BMP280;9663;48.996;8.334;2023-12-22T03:54:34;99247.59;;;15.84
19061;BMP280;9663;48.996;8.334;2023-12-22T03:57:00;99243.81;;;15.73
19061;BMP280;9663;48.996;8.334;2023-12-22T03:59:25;99249.28;;;15.64
19061;BMP280;9663;48.996;8.334;2023-12-22T04:01:52;99256.41;;;15.56
19061;BMP280;9663;48.996;8.334;2023-12-22T04:04:22;99261.66;;;15.53
19061;BMP280;9663;48.996;8.334;2023-12-22T04:06:49;99249.00;;;15.50
19061;BMP280;9663;48.996;8.334;2023-12-22T04:09:14;99253.28;;;15.49
19061;BMP280;9663;48.996;8.334;2023-12-22T04:11:40;99234.56;;;15.49
19061;BMP280;9663;48.996;8.334;2023-12-22T04:14:07;99245.63;;;15.49
19061;BMP280;9663;48.996;8.334;2023-12-22T04:16:32;99243.84;;;15.51
19061;BMP280;9663;48.996;8.334;2023-12-22T04:18:58;99250.59;;;15.52
19061;BMP280;9663;48.996;8.334;2023-12-22T04:21:24;99244.66;;;15.52
19061;BMP280;9663;48.996;8.334;2023-12-22T04:23:49;99256.66;;;15.50
19061;BMP280;9663;48.996;8.334;2023-12-22T04:26:15;99260.88;;;15.51
19061;BMP280;9663;48.996;8.334;2023-12-22T04:28:40;99249.81;;;15.50
19061;BMP280;9663;48.996;8.334;2023-12-22T04:31:06;99260.00;;;15.52
19061;BMP280;9663;48.996;8.334;2023-12-22T04:33:32;99259.16;;;15.51
19061;BMP280;9663;48.996;8.334;2023-12-22T04:35:57;99244.66;;;15.52
19061;BMP280;9663;48.996;8.334;2023-12-22T04:38:23;99245.44;;;15.54
19061;BMP280;9663;48.996;8.334;2023-12-22T04:40:48;99265.81;;;15.55
19061;BMP280;9663;48.996;8.334;2023-12-22T04:43:14;99253.78;;;15.57
19061;BMP280;9663;48.996;8.334;2023-12-22T04:45:40;99286.09;;;15.60
19061;BMP280;9663;48.996;8.334;2023-12-22T04:48:06;99282.44;;;15.65
19061;BMP280;9663;48.996;8.334;2023-12-22T04:50:32;99292.63;;;15.67
19061;BMP280;9663;48.996;8.334;2023-12-22T04:52:57;99257.59;;;15.69
19061;BMP280;9663;48.996;8.334;2023-12-22T04:55:23;99257.47;;;15.72
19061;BMP280;9663;48.996;8.334;2023-12-22T04:57:48;99283.75;;;15.75
19061;BMP280;9663;48.996;8.334;2023-12-22T05:00:14;99269.13;;;15.79
19061;BMP280;9663;48.996;8.334;2023-12-22T05:02:40;99249.38;;;15.82
19061;BMP280;9663;48.996;8.334;2023-12-22T05:05:07;99256.97;;;15.83
19061;BMP280;9663;48.996;8.334;2023-12-22T05:07:34;99267.09;;;15.86
19061;BMP280;9663;48.996;8.334;2023-12-22T05:10:00;99264.47;;;15.88
19061;BMP280;9663;48.996;8.334;2023-12-22T05:12:26;99272.09;;;15.89
19061;BMP280;9663;48.996;8.334;2023-12-22T05:14:52;99269.41;;;15.92
19061;BMP280;9663;48.996;8.334;2023-12-22T05:17:17;99311.09;;;15.94
19061;BMP280;9663;48.996;8.334;2023-12-22T05:19:43;99288.00;;;15.96
19061;BMP280;9663;48.996;8.334;2023-12-22T05:22:08;99287.03;;;15.98
19061;BMP280;9663;48.996;8.334;2023-12-22T05:24:34;99306.63;;;15.99
19061;BMP280;9663;48.996;8.334;2023-12-22T05:27:00;99324.41;;;16.02
19061;BMP280;9663;48.996;8.334;2023-12-22T05:29:25;99320.94;;;16.03
19061;BMP280;9663;48.996;8.334;2023-12-22T05:31:51;99324.13;;;16.08
19061;BMP280;9663;48.996;8.334;2023-12-22T05:34:16;99321.50;;;16.10
19061;BMP280;9663;48.996;8.334;2023-12-22T05:36:42;99316.28;;;16.13
19061;BMP280;9663;48.996;8.334;2023-12-22T05:39:08;99333.19;;;16.17
19061;BMP280;9663;48.996;8.334;2023-12-22T05:41:35;99325.34;;;16.21
19061;BMP280;9663;48.996;8.334;2023-12-22T05:44:05;99322.72;;;16.23
19061;BMP280;9663;48.996;8.334;2023-12-22T05:46:36;99333.88;;;16.22
19061;BMP280;9663;48.996;8.334;2023-12-22T05:49:03;99319.28;;;16.24
19061;BMP280;9663;48.996;8.334;2023-12-22T05:51:29;99339.69;;;16.25
19061;BMP280;9663;48.996;8.334;2023-12-22T05:54:01;99337.06;;;16.26
19061;BMP280;9663;48.996;8.334;2023-12-22T05:56:26;99341.25;;;16.27
19061;BMP280;9663;48.996;8.334;2023-12-22T05:58:52;99339.63;;;16.26
19061;BMP280;9663;48.996;8.334;2023-12-22T06:01:18;99341.19;;;16.29
19061;BMP280;9663;48.996;8.334;2023-12-22T06:03:46;99341.97;;;16.31
19061;BMP280;9663;48.996;8.334;2023-12-22T06:06:11;99330.91;;;16.30
19061;BMP280;9663;48.996;8.334;2023-12-22T06:08:38;99341.09;;;16.32
19061;BMP280;9663;48.996;8.334;2023-12-22T06:11:05;99347.78;;;16.34
19061;BMP280;9663;48.996;8.334;2023-12-22T06:13:31;99348.63;;;16.35
19061;BMP280;9663;48.996;8.334;2023-12-22T06:15:57;99340.91;;;16.36
19061;BMP280;9663;48.996;8.334;2023-12-22T06:18:23;99350.22;;;16.37
19061;BMP280;9663;48.996;8.334;2023-12-22T06:20:50;99342.50;;;16.39
19061;BMP280;9663;48.996;8.334;2023-12-22T06:23:15;99351.00;;;16.39
19061;BMP280;9663;48.996;8.334;2023-12-22T06:25:41;99366.34;;;16.39
19061;BMP280;9663;48.996;8.334;2023-12-22T06:28:07;99365.56;;;16.37
19061;BMP280;9663;48.996;8.334;2023-12-22T06:30:32;99361.56;;;16.32
19061;BMP280;9663;48.996;8.334;2023-12-22T06:32:58;99370.31;;;16.26
19061;BMP280;9663;48.996;8.334;2023-12-22T06:35:24;99380.66;;;16.24
19061;BMP280;9663;48.996;8.334;2023-12-22T06:37:51;99384.16;;;16.21
19061;BMP280;9663;48.996;8.334;2023-12-22T06:40:21;99391.78;;;16.23
19061;BMP280;9663;48.996;8.334;2023-12-22T06:42:46;99402.00;;;16.23
19061;BMP280;9663;48.996;8.334;2023-12-22T06:45:12;99396.16;;;16.19
19061;BMP280;9663;48.996;8.334;2023-12-22T06:47:38;99391.94;;;16.18
19061;BMP280;9663;48.996;8.334;2023-12-22T06:50:04;99383.50;;;16.16
19061;BMP280;9663;48.996;8.334;2023-12-22T06:52:30;99394.63;;;16.15
19061;BMP280;9663;48.996;8.334;2023-12-22T06:54:56;99387.00;;;16.14
19061;BMP280;9663;48.996;8.334;2023-12-22T06:57:22;99404.06;;;16.13
19061;BMP280;9663;48.996;8.334;2023-12-22T06:59:48;99382.00;;;16.11
19061;BMP280;9663;48.996;8.334;2023-12-22T07:02:16;99383.88;;;16.07
19061;BMP280;9663;48.996;8.334;2023-12-22T07:07:46;99395.41;;;15.96
19061;BMP280;9663;48.996;8.334;2023-12-22T07:10:12;99394.69;;;15.92
19061;BMP280;9663;48.996;8.334;2023-12-22T07:12:38;99381.16;;;15.90
19061;BMP280;9663;48.996;8.334;2023-12-22T07:15:05;99374.34;;;15.89
19061;BMP280;9663;48.996;8.334;2023-12-22T07:17:34;99382.97;;;15.87
19061;BMP280;9663;48.996;8.334;2023-12-22T07:20:00;99369.41;;;15.85
19061;BMP280;9663;48.996;8.334;2023-12-22T07:22:29;99374.53;;;15.85
19061;BMP280;9663;48.996;8.334;2023-12-22T07:24:57;99383.94;;;15.84
19061;BMP280;9663;48.996;8.334;2023-12-22T07:27:23;99379.75;;;15.82
19061;BMP280;9663;48.996;8.334;2023-12-22T07:29:49;99383.22;;;15.81
19061;BMP280;9663;48.996;8.334;2023-12-22T07:32:15;99370.66;;;15.75
19061;BMP280;9663;48.996;8.334;2023-12-22T07:34:40;99390.50;;;15.69
19061;BMP280;9663;48.996;8.334;2023-12-22T07:37:06;99406.09;;;15.63
19061;BMP280;9663;48.996;8.334;2023-12-22T07:39:31;99404.53;;;15.59
19061;BMP280;9663;48.996;8.334;2023-12-22T07:41:57;99393.75;;;15.51
19061;BMP280;9663;48.996;8.334;2023-12-22T07:44:23;99385.56;;;15.43
19061;BMP280;9663;48.996;8.334;2023-12-22T07:46:59;99401.22;;;15.34
19061;BMP280;9663;48.996;8.334;2023-12-22T07:49:25;99404.06;;;15.27
19061;BMP280;9663;48.996;8.334;2023-12-22T07:51:52;99398.28;;;15.22
19061;BMP280;9663;48.996;8.334;2023-12-22T07:54:18;99420.47;;;15.20
19061;BMP280;9663;48.996;8.334;2023-12-22T07:56:44;99418.09;;;15.15
19061;BMP280;9663;48.996;8.334;2023-12-22T07:59:10;99425.69;;;15.17
19061;BMP280;9663;48.996;8.334;2023-12-22T08:01:35;99428.31;;;15.15
19061;BMP280;9663;48.996;8.334;2023-12-22T08:04:04;99434.97;;;15.19
19061;BMP280;9663;48.996;8.334;2023-12-22T08:06:30;99438.28;;;15.21
19061;BMP280;9663;48.996;8.334;2023-12-22T08:08:56;99440.69;;;15.26
19061;BMP280;9663;48.996;8.334;2023-12-22T08:11:21;99441.41;;;15.29
19061;BMP280;9663;48.996;8.334;2023-12-22T08:13:50;99436.19;;;15.32
19061;BMP280;9663;48.996;8.334;2023-12-22T08:16:16;99441.94;;;15.38
19061;BMP280;9663;48.996;8.334;2023-12-22T08:18:42;99435.81;;;15.42
19061;BMP280;9663;48.996;8.334;2023-12-22T08:21:07;99439.75;;;15.51
19061;BMP280;9663;48.996;8.334;2023-12-22T08:23:33;99431.03;;;15.56
19061;BMP280;9663;48.996;8.334;2023-12-22T08:25:59;99429.91;;;15.63
19061;BMP280;9663;48.996;8.334;2023-12-22T08:28:25;99451.84;;;15.69
19061;BMP280;9663;48.996;8.334;2023-12-22T08:30:51;99455.94;;;15.74
19061;BMP280;9663;48.996;8.334;2023-12-22T08:33:17;99461.75;;;15.78
19061;BMP280;9663;48.996;8.334;2023-12-22T08:35:44;99452.19;;;15.82
19061;BMP280;9663;48.996;8.334;2023-12-22T08:38:09;99457.06;;;15.88
19061;BMP280;9663;48.996;8.334;2023-12-22T08:40:35;99461.19;;;15.92
19061;BMP280;9663;48.996;8.334;2023-12-22T08:43:01;99437.16;;;15.96
19061;BMP280;9663;48.996;8.334;2023-12-22T08:45:28;99453.09;;;16.03
19061;BMP280;9663;48.996;8.334;2023-12-22T08:47:57;99423.09;;;16.06
19061;BMP280;9663;48.996;8.334;2023-12-22T08:50:23;99442.56;;;16.10
19061;BMP280;9663;48.996;8.334;2023-12-22T08:52:48;99441.56;;;16.14
19061;BMP280;9663;48.996;8.334;2023-12-22T08:55:14;99444.75;;;16.21
19061;BMP280;9663;48.996;8.334;2023-12-22T08:57:40;99451.44;;;16.23
19061;BMP280;9663;48.996;8.334;2023-12-22T09:00:06;99464.97;;;16.26
19061;BMP280;9663;48.996;8.334;2023-12-22T09:02:33;99458.91;;;16.29
19061;BMP280;9663;48.996;8.334;2023-12-22T09:04:58;99451.09;;;16.32
19061;BMP280;9663;48.996;8.334;2023-12-22T09:07:24;99446.69;;;16.35
19061;BMP280;9663;48.996;8.334;2023-12-22T09:09:50;99438.91;;;16.38
19061;BMP280;9663;48.996;8.334;2023-12-22T09:12:16;99436.34;;;16.38
19061;BMP280;9663;48.996;8.334;2023-12-22T09:14:42;99443.03;;;16.41
19061;BMP280;9663;48.996;8.334;2023-12-22T09:17:07;99451.38;;;16.46
19061;BMP280;9663;48.996;8.334;2023-12-22T09:19:34;99446.19;;;16.47
19061;BMP280;9663;48.996;8.334;2023-12-22T09:22:04;99450.38;;;16.50
19061;BMP280;9663;48.996;8.334;2023-12-22T09:24:30;99467.38;;;16.51
19061;BMP280;9663;48.996;8.334;2023-12-22T09:26:56;99439.16;;;16.52
19061;BMP280;9663;48.996;8.334;2023-12-22T09:29:29;99439.94;;;16.54
19061;BMP280;9663;48.996;8.334;2023-12-22T09:31:55;99443.88;;;16.82
19061;BMP280;9663;48.996;8.334;2023-12-22T09:34:21;99418.97;;;16.66
19061;BMP280;9663;48.996;8.334;2023-12-22T09:36:47;99425.75;;;16.67
19061;BMP280;9663;48.996;8.334;2023-12-22T09:39:12;99429.78;;;17.12
19061;BMP280;9663;48.996;8.334;2023-12-22T09:41:48;99412.72;;;17.11
19061;BMP280;9663;48.996;8.334;2023-12-22T09:44:21;99435.03;;;16.89
19061;BMP280;9663;48.996;8.334;2023-12-22T09:46:50;99442.47;;;16.95
19061;BMP280;9663;48.996;8.334;2023-12-22T09:49:21;99434.78;;;16.95
19061;BMP280;9663;48.996;8.334;2023-12-22T09:51:51;99458.59;;;16.97
19061;BMP280;9663;48.996;8.334;2023-12-22T09:54:18;99437.19;;;16.98
19061;BMP280;9663;48.996;8.334;2023-12-22T09:56:46;99447.44;;;16.98
19061;BMP280;9663;48.996;8.334;2023-12-22T09:59:13;99433.88;;;16.96
19061;BMP280;9663;48.996;8.334;2023-12-22T10:01:44;99464.59;;;16.96
19061;BMP280;9663;48.996;8.334;2023-12-22T10:04:14;99454.50;;;16.93
19061;BMP280;9663;48.996;8.334;2023-12-22T10:06:41;99448.59;;;16.91
19061;BMP280;9663;48.996;8.334;2023-12-22T10:09:09;99447.78;;;16.91
19061;BMP280;9663;48.996;8.334;2023-12-22T10:11:37;99455.53;;;16.89
19061;BMP280;9663;48.996;8.334;2023-12-22T10:14:06;99453.03;;;16.88
19061;BMP280;9663;48.996;8.334;2023-12-22T10:16:32;99453.22;;;16.83
19061;BMP280;9663;48.996;8.334;2023-12-22T10:18:59;99445.66;;;16.80
19061;BMP280;9663;48.996;8.334;2023-12-22T10:21:25;99435.56;;;16.77
19061;BMP280;9663;48.996;8.334;2023-12-22T10:23:53;99442.44;;;16.75
19061;BMP280;9663;48.996;8.334;2023-12-22T10:26:20;99423.06;;;16.70
19061;BMP280;9663;48.996;8.334;2023-12-22T10:28:47;99431.13;;;16.61
19061;BMP280;9663;48.996;8.334;2023-12-22T10:31:14;99443.53;;;16.50
19061;BMP280;9663;48.996;8.334;2023-12-22T10:33:40;99433.13;;;16.94
19061;BMP280;9663;48.996;8.334;2023-12-22T10:36:07;99427.28;;;16.51
19061;BMP280;9663;48.996;8.334;2023-12-22T10:38:34;99428.63;;;16.79
19061;BMP280;9663;48.996;8.334;2023-12-22T10:41:06;99415.47;;;16.47
19061;BMP280;9663;48.996;8.334;2023-12-22T10:43:41;99420.16;;;16.38
19061;BMP280;9663;48.996;8.334;2023-12-22T10:46:07;99412.78;;;16.30
19061;BMP280;9663;48.996;8.334;2023-12-22T10:48:34;99409.94;;;16.77
19061;BMP280;9663;48.996;8.334;2023-12-22T10:51:00;99407.56;;;16.33
19061;BMP280;9663;48.996;8.334;2023-12-22T10:53:25;99403.63;;;16.25
19061;BMP280;9663;48.996;8.334;2023-12-22T10:55:52;99408.03;;;16.22
19061;BMP280;9663;48.996;8.334;2023-12-22T10:58:18;99392.13;;;16.14
19061;BMP280;9663;48.996;8.334;2023-12-22T11:00:50;99401.78;;;16.07
19061;BMP280;9663;48.996;8.334;2023-12-22T11:03:18;99385.25;;;16.57
19061;BMP280;9663;48.996;8.334;2023-12-22T11:05:47;99382.84;;;16.11
19061;BMP280;9663;48.996;8.334;2023-12-22T11:08:15;99394.66;;;16.56
19061;BMP280;9663;48.996;8.334;2023-12-22T11:10:43;99401.38;;;16.16
19061;BMP280;9663;48.996;8.334;2023-12-22T11:13:12;99396.53;;;16.10
19061;BMP280;9663;48.996;8.334;2023-12-22T11:15:40;99395.03;;;16.05
19061;BMP280;9663;48.996;8.334;2023-12-22T11:18:08;99390.41;;;16.55
19061;BMP280;9663;48.996;8.334;2023-12-22T11:20:35;99390.34;;;16.57
19061;BMP280;9663;48.996;8.334;2023-12-22T11:23:04;99378.38;;;16.16
19061;BMP280;9663;48.996;8.334;2023-12-22T11:25:31;99371.78;;;16.11
19061;BMP280;9663;48.996;8.334;2023-12-22T11:28:00;99377.84;;;16.08
19061;BMP280;9663;48.996;8.334;2023-12-22T11:30:28;99372.78;;;16.28
19061;BMP280;9663;48.996;8.334;2023-12-22T11:32:57;99352.41;;;16.05
19061;BMP280;9663;48.996;8.334;2023-12-22T11:35:23;99342.41;;;15.99
19061;BMP280;9663;48.996;8.334;2023-12-22T11:37:50;99328.91;;;15.96
19061;BMP280;9663;48.996;8.334;2023-12-22T11:40:16;99313.69;;;15.93
19061;BMP280;9663;48.996;8.334;2023-12-22T11:42:48;99312.16;;;15.89
19061;BMP280;9663;48.996;8.334;2023-12-22T11:45:14;99298.69;;;15.85
19061;BMP280;9663;48.996;8.334;2023-12-22T11:47:42;99304.72;;;15.83
19061;BMP280;9663;48.996;8.334;2023-12-22T11:50:12;99292.13;;;15.79
19061;BMP280;9663;48.996;8.334;2023-12-22T11:52:38;99286.31;;;15.75
19061;BMP280;9663;48.996;8.334;2023-12-22T11:55:04;99285.53;;;15.73
19061;BMP280;9663;48.996;8.334;2023-12-22T11:57:36;99293.38;;;15.69
19061;BMP280;9663;48.996;8.334;2023-12-22T12:00:04;99292.66;;;15.65
19061;BMP280;9663;48.996;8.334;2023-12-22T12:02:35;99275.59;;;15.66
19061;BMP280;9663;48.996;8.334;2023-12-22T12:05:02;99266.28;;;15.65
19061;BMP280;9663;48.996;8.334;2023-12-22T12:08:07;99266.72;;;15.54
19061;BMP280;9663;48.996;8.334;2023-12-22T12:13:09;99256.19;;;15.62
19061;BMP280;9663;48.996;8.334;2023-12-22T12:15:36;99251.00;;;15.63
19061;BMP280;9663;48.996;8.334;2023-12-22T12:18:04;99241.63;;;15.64
19061;BMP280;9663;48.996;8.334;2023-12-22T12:20:32;99260.41;;;15.63
19061;BMP280;9663;48.996;8.334;2023-12-22T12:23:00;99237.47;;;15.61
19061;BMP280;9663;48.996;8.334;2023-12-22T12:25:32;99237.59;;;15.58
19061;BMP280;9663;48.996;8.334;2023-12-22T12:28:02;99240.19;;;15.57
19061;BMP280;9663;48.996;8.334;2023-12-22T12:30:28;99240.25;;;15.55
19061;BMP280;9663;48.996;8.334;2023-12-22T12:32:54;99225.84;;;15.54
19061;BMP280;9663;48.996;8.334;2023-12-22T12:35:20;99227.47;;;15.55
19061;BMP280;9663;48.996;8.334;2023-12-22T12:37:49;99223.13;;;15.57
19061;BMP280;9663;48.996;8.334;2023-12-22T12:40:20;99231.59;;;15.59
19061;BMP280;9663;48.996;8.334;2023-12-22T12:42:47;99228.94;;;15.61
19061;BMP280;9663;48.996;8.334;2023-12-22T12:45:14;99232.25;;;15.64
19061;BMP280;9663;48.996;8.334;2023-12-22T12:47:39;99221.94;;;15.66
19061;BMP280;9663;48.996;8.334;2023-12-22T12:50:06;99220.09;;;15.69
19061;BMP280;9663;48.996;8.334;2023-12-22T12:52:31;99234.59;;;15.69
19061;BMP280;9663;48.996;8.334;2023-12-22T12:54:57;99224.31;;;15.70
19061;BMP280;9663;48.996;8.334;2023-12-22T12:57:24;99226.81;;;15.72
19061;BMP280;9663;48.996;8.334;2023-12-22T12:59:50;99230.41;;;15.87
19061;BMP280;9663;48.996;8.334;2023-12-22T13:02:17;99229.44;;;16.29
19061;BMP280;9663;48.996;8.334;2023-12-22T13:04:44;99251.50;;;15.92
19061;BMP280;9663;48.996;8.334;2023-12-22T13:07:10;99231.94;;;15.91
19061;BMP280;9663;48.996;8.334;2023-12-22T13:09:39;99250.47;;;15.96
19061;BMP280;9663;48.996;8.334;2023-12-22T13:12:05;99251.19;;;16.00
19061;BMP280;9663;48.996;8.334;2023-12-22T13:14:31;99247.63;;;16.04
19061;BMP280;9663;48.996;8.334;2023-12-22T13:16:58;99243.25;;;16.06
19061;BMP280;9663;48.996;8.334;2023-12-22T13:19:25;99229.38;;;16.11
19061;BMP280;9663;48.996;8.334;2023-12-22T13:21:53;99243.72;;;16.15
19061;BMP280;9663;48.996;8.334;2023-12-22T13:24:19;99228.22;;;16.18
19061;BMP280;9663;48.996;8.334;2023-12-22T13:26:45;99243.34;;;16.24
19061;BMP280;9663;48.996;8.334;2023-12-22T13:29:12;99238.03;;;16.28
19061;BMP280;9663;48.996;8.334;2023-12-22T13:31:40;99235.38;;;16.31
19061;BMP280;9663;48.996;8.334;2023-12-22T13:34:17;99242.81;;;16.36
19061;BMP280;9663;48.996;8.334;2023-12-22T13:36:43;99224.72;;;16.40
19061;BMP280;9663;48.996;8.334;2023-12-22T13:39:09;99241.53;;;16.46
19061;BMP280;9663;48.996;8.334;2023-12-22T13:41:42;99225.28;;;16.47
19061;BMP280;9663;48.996;8.334;2023-12-22T13:44:14;99236.28;;;16.49
19061;BMP280;9663;48.996;8.334;2023-12-22T13:46:40;99235.41;;;16.50
19061;BMP280;9663;48.996;8.334;2023-12-22T13:49:10;99232.72;;;16.53
19061;BMP280;9663;48.996;8.334;2023-12-22T13:51:54;99239.66;;;16.49
19061;BMP280;9663;48.996;8.334;2023-12-22T13:54:20;99237.84;;;16.53
19061;BMP280;9663;48.996;8.334;2023-12-22T13:56:46;99242.84;;;16.54
19061;BMP280;9663;48.996;8.334;2023-12-22T13:59:12;99252.13;;;16.57
19061;BMP280;9663;48.996;8.334;2023-12-22T14:01:38;99254.56;;;16.60
19061;BMP280;9663;48.996;8.334;2023-12-22T14:04:04;99265.56;;;16.62
19061;BMP280;9663;48.996;8.334;2023-12-22T14:06:30;99250.91;;;16.65
19061;BMP280;9663;48.996;8.334;2023-12-22T14:08:56;99258.38;;;16.69
19061;BMP280;9663;48.996;8.334;2023-12-22T14:11:23;99266.75;;;16.73
19061;BMP280;9663;48.996;8.334;2023-12-22T14:13:50;99257.22;;;16.76
19061;BMP280;9663;48.996;8.334;2023-12-22T14:16:16;99241.72;;;16.79
19061;BMP280;9663;48.996;8.334;2023-12-22T14:18:42;99261.47;;;17.32
19061;BMP280;9663;48.996;8.334;2023-12-22T14:21:08;99262.09;;;17.19
19061;BMP280;9663;48.996;8.334;2023-12-22T14:23:34;99249.47;;;17.51
19061;BMP280;9663;48.996;8.334;2023-12-22T14:26:00;99215.34;;;17.14